Check out our new BloomSky Weather System.

Active alerts


No alerts


Thunder radar  blitzortung!


Rain radar more information rain snow radar


Visit our other weather sites:

Template documentation
and downloads

And another site



Weather Underground History page Text

Daily Summary for November 10, 2017 Units:  English    Metric   Both
« Previous Day
Next Day »
Daily Weekly Monthly Yearly Custom
  High: Low: Average:
Temperature: 69.8 °F 47.5 °F 59.2 °F
Dew Point: 53.8 °F 46.9 °F 50.3 °F
Humidity: 98 % 50 % 75 %
Wind Speed: 6.0 mph 0.0 mph 0.8 mph
Wind Gust: 10.0 mph - -
Wind:- - SE
Pressure: 30.27 in 30.17 in -
Precipitation: 0.01 in    
Historical Graphs
 
 
Tabular Data for November 10, 2017
Time Temperature Dew Point Pressure Wind Wind Speed Wind Gust Humidity Rainfall Rate (Hourly)
00:02 50.2 °F 49.1 °F 30.24 in Calm   2.0 mph 96 % 0.00 in
00:07 50.0 °F 48.9 °F 30.24 in Calm   2.0 mph 96 % 0.00 in
00:12 50.0 °F 48.9 °F 30.24 in Calm   1.0 mph 96 % 0.00 in
00:17 50.0 °F 48.9 °F 30.24 in Calm   2.0 mph 96 % 0.00 in
00:22 50.2 °F 49.1 °F 30.24 in NW 2.0 mph 2.0 mph 96 % 0.00 in
00:27 50.2 °F 49.1 °F 30.23 in Calm   3.0 mph 96 % 0.00 in
00:32 50.2 °F 49.1 °F 30.23 in NNW 1.0 mph 3.0 mph 96 % 0.00 in
00:37 50.0 °F 48.9 °F 30.23 in North 2.0 mph 4.0 mph 96 % 0.00 in
00:42 49.8 °F 48.7 °F 30.23 in North 1.0 mph 4.0 mph 96 % 0.00 in
00:47 49.8 °F 48.7 °F 30.23 in Calm   4.0 mph 96 % 0.00 in
00:52 49.8 °F 48.7 °F 30.23 in NNW 1.0 mph 2.0 mph 96 % 0.00 in
00:57 49.8 °F 48.7 °F 30.22 in NW 1.0 mph 3.0 mph 96 % 0.00 in
01:02 49.6 °F 48.6 °F 30.22 in NW 1.0 mph 3.0 mph 96 % 0.00 in
01:08 49.6 °F 48.6 °F 30.22 in NNW 1.0 mph 3.0 mph 96 % 0.00 in
01:13 49.6 °F 48.6 °F 30.22 in North 1.0 mph 3.0 mph 96 % 0.00 in
01:18 49.6 °F 48.6 °F 30.22 in NW 1.0 mph 3.0 mph 96 % 0.00 in
01:23 49.6 °F 48.6 °F 30.22 in NNW 1.0 mph 3.0 mph 96 % 0.00 in
01:27 49.5 °F 48.4 °F 30.22 in NNW 1.0 mph 3.0 mph 96 % 0.00 in
01:32 49.6 °F 48.6 °F 30.22 in NW 1.0 mph 3.0 mph 96 % 0.00 in
01:37 49.5 °F 48.4 °F 30.22 in Calm   4.0 mph 96 % 0.00 in
01:43 49.5 °F 48.4 °F 30.22 in NNW 1.0 mph 4.0 mph 96 % 0.00 in
01:48 49.3 °F 48.4 °F 30.22 in NNW 1.0 mph 4.0 mph 97 % 0.00 in
01:53 49.3 °F 48.4 °F 30.22 in Calm   2.0 mph 97 % 0.00 in
01:58 49.3 °F 48.4 °F 30.22 in Calm   2.0 mph 97 % 0.00 in
02:03 49.3 °F 48.4 °F 30.22 in Calm   2.0 mph 97 % 0.00 in
02:08 49.1 °F 48.2 °F 30.22 in Calm   2.0 mph 97 % 0.00 in
02:13 48.9 °F 48.0 °F 30.22 in Calm   2.0 mph 97 % 0.00 in
02:17 48.9 °F 48.0 °F 30.22 in NW 1.0 mph 2.0 mph 97 % 0.00 in
02:23 48.9 °F 48.0 °F 30.22 in Calm   1.0 mph 97 % 0.00 in
02:28 48.9 °F 48.0 °F 30.22 in Calm   1.0 mph 97 % 0.00 in
02:33 48.7 °F 47.8 °F 30.22 in Calm   1.0 mph 97 % 0.00 in
02:38 48.7 °F 47.8 °F 30.22 in Calm   1.0 mph 97 % 0.00 in
02:43 48.7 °F 47.8 °F 30.22 in NNW 1.0 mph 1.0 mph 97 % 0.00 in
02:48 48.7 °F 47.8 °F 30.22 in Calm   1.0 mph 97 % 0.00 in
02:53 48.7 °F 47.8 °F 30.22 in Calm   1.0 mph 97 % 0.00 in
02:55 48.6 °F 47.7 °F 30.22 in NNW 1.0 mph 1.0 mph 97 % 0.00 in
03:00 48.7 °F 47.8 °F 30.22 in Calm   1.0 mph 97 % 0.00 in
03:05 48.6 °F 47.7 °F 30.22 in Calm   1.0 mph 97 % 0.00 in
03:10 48.7 °F 47.8 °F 30.22 in North 1.0 mph 2.0 mph 97 % 0.00 in
03:15 48.6 °F 47.7 °F 30.22 in NNW 1.0 mph 2.0 mph 97 % 0.00 in
03:20 48.7 °F 47.8 °F 30.22 in Calm   3.0 mph 97 % 0.00 in
03:25 48.6 °F 47.7 °F 30.21 in Calm   3.0 mph 97 % 0.00 in
03:30 48.6 °F 47.7 °F 30.21 in NNW 1.0 mph 3.0 mph 97 % 0.00 in
03:35 48.6 °F 47.7 °F 30.21 in NNE 1.0 mph 2.0 mph 97 % 0.00 in
03:40 48.4 °F 47.5 °F 30.21 in Calm   2.0 mph 97 % 0.00 in
03:45 48.4 °F 47.5 °F 30.22 in Calm   2.0 mph 97 % 0.00 in
03:50 48.4 °F 47.5 °F 30.21 in Calm   2.0 mph 97 % 0.00 in
03:55 48.2 °F 47.3 °F 30.21 in Calm   2.0 mph 97 % 0.00 in
04:00 48.0 °F 47.1 °F 30.21 in NNE 1.0 mph 2.0 mph 97 % 0.00 in
04:05 48.2 °F 47.7 °F 30.21 in North 1.0 mph 2.0 mph 98 % 0.00 in
04:11 48.2 °F 47.7 °F 30.22 in WNW 4.0 mph 5.0 mph 98 % 0.00 in
04:16 48.2 °F 47.7 °F 30.22 in Calm   5.0 mph 98 % 0.00 in
04:21 48.0 °F 47.5 °F 30.22 in Calm   5.0 mph 98 % 0.00 in
04:26 47.8 °F 47.3 °F 30.22 in Calm   4.0 mph 98 % 0.00 in
04:31 47.8 °F 47.3 °F 30.22 in NW 1.0 mph 1.0 mph 98 % 0.00 in
04:36 47.8 °F 47.3 °F 30.22 in Calm   2.0 mph 98 % 0.00 in
04:41 47.8 °F 47.3 °F 30.22 in NNW 1.0 mph 2.0 mph 98 % 0.00 in
04:46 47.8 °F 47.3 °F 30.22 in Calm   2.0 mph 98 % 0.00 in
04:51 47.8 °F 47.3 °F 30.22 in Calm   2.0 mph 98 % 0.00 in
04:56 47.8 °F 47.3 °F 30.22 in Calm   2.0 mph 98 % 0.00 in
05:01 47.8 °F 47.3 °F 30.22 in Calm   2.0 mph 98 % 0.00 in
05:06 47.8 °F 47.3 °F 30.22 in Calm   2.0 mph 98 % 0.00 in
05:11 47.8 °F 47.3 °F 30.22 in Calm   2.0 mph 98 % 0.00 in
05:16 47.7 °F 47.1 °F 30.22 in Calm   1.0 mph 98 % 0.00 in
05:21 47.7 °F 47.1 °F 30.22 in NNE 1.0 mph 1.0 mph 98 % 0.00 in
05:26 47.7 °F 47.1 °F 30.22 in Calm   1.0 mph 98 % 0.00 in
05:31 47.5 °F 46.9 °F 30.22 in Calm   1.0 mph 98 % 0.00 in
05:36 47.7 °F 47.1 °F 30.22 in Calm   1.0 mph 98 % 0.00 in
05:41 47.7 °F 47.1 °F 30.22 in Calm   1.0 mph 98 % 0.00 in
05:46 47.7 °F 47.1 °F 30.23 in Calm   1.0 mph 98 % 0.00 in
05:51 47.7 °F 47.1 °F 30.23 in Calm   1.0 mph 98 % 0.00 in
05:56 47.7 °F 47.1 °F 30.23 in Calm   1.0 mph 98 % 0.00 in
06:01 47.7 °F 47.1 °F 30.22 in Calm   1.0 mph 98 % 0.00 in
06:06 47.7 °F 47.1 °F 30.22 in Calm   3.0 mph 98 % 0.00 in
06:11 47.7 °F 47.1 °F 30.23 in Calm   3.0 mph 98 % 0.00 in
06:16 47.7 °F 47.1 °F 30.23 in Calm   3.0 mph 98 % 0.00 in
06:21 47.7 °F 47.1 °F 30.23 in Calm   2.0 mph 98 % 0.00 in
06:26 47.7 °F 47.1 °F 30.23 in Calm   2.0 mph 98 % 0.00 in
06:31 47.7 °F 47.1 °F 30.23 in Calm   1.0 mph 98 % 0.00 in
06:36 47.7 °F 47.1 °F 30.23 in Calm   1.0 mph 98 % 0.00 in
06:37 47.7 °F 47.1 °F 30.23 in Calm   1.0 mph 98 % 0.00 in
06:42 47.7 °F 47.1 °F 30.23 in Calm   1.0 mph 98 % 0.00 in
06:47 47.7 °F 47.1 °F 30.23 in Calm   2.0 mph 98 % 0.00 in
06:52 47.7 °F 47.1 °F 30.24 in Calm   2.0 mph 98 % 0.00 in
06:57 47.7 °F 47.1 °F 30.24 in NNW 1.0 mph 2.0 mph 98 % 0.00 in
07:02 47.7 °F 47.1 °F 30.24 in Calm   1.0 mph 98 % 0.00 in
07:07 47.7 °F 47.1 °F 30.24 in Calm   1.0 mph 98 % 0.00 in
07:12 47.8 °F 47.3 °F 30.25 in Calm   1.0 mph 98 % 0.00 in
07:18 47.8 °F 47.3 °F 30.25 in Calm   1.0 mph 98 % 0.00 in
07:23 48.2 °F 47.7 °F 30.25 in Calm   1.0 mph 98 % 0.00 in
07:28 48.6 °F 48.0 °F 30.25 in Calm   1.0 mph 98 % 0.00 in
07:33 48.9 °F 48.4 °F 30.25 in Calm   2.0 mph 98 % 0.00 in
07:38 49.5 °F 48.6 °F 30.26 in Calm   2.0 mph 97 % 0.00 in
07:43 49.8 °F 48.9 °F 30.26 in Calm   2.0 mph 97 % 0.00 in
07:48 50.4 °F 49.5 °F 30.26 in Calm   2.0 mph 97 % 0.00 in
07:53 51.1 °F 50.2 °F 30.26 in NNE 2.0 mph 2.0 mph 97 % 0.00 in
07:58 51.8 °F 50.7 °F 30.26 in NNE 2.0 mph 2.0 mph 96 % 0.00 in
08:03 52.0 °F 50.0 °F 30.27 in NW 4.0 mph 4.0 mph 93 % 0.00 in
08:04 52.0 °F 50.0 °F 30.27 in Calm   3.0 mph 93 % 0.00 in
08:09 52.5 °F 50.2 °F 30.27 in NNE 1.0 mph 4.0 mph 92 % 0.01 in
08:14 52.9 °F 50.0 °F 30.27 in East 1.0 mph 4.0 mph 90 % 0.01 in
08:19 53.4 °F 50.0 °F 30.27 in NNE 1.0 mph 4.0 mph 88 % 0.01 in
08:24 54.0 °F 49.8 °F 30.27 in NE 3.0 mph 4.0 mph 86 % 0.01 in
08:29 54.5 °F 49.5 °F 30.27 in East 2.0 mph 4.0 mph 83 % 0.01 in
08:34 54.9 °F 49.1 °F 30.27 in Calm   4.0 mph 81 % 0.01 in
08:39 55.2 °F 49.5 °F 30.27 in ENE 2.0 mph 5.0 mph 81 % 0.01 in
08:44 55.6 °F 49.5 °F 30.27 in North 1.0 mph 5.0 mph 80 % 0.01 in
08:49 55.9 °F 49.1 °F 30.27 in Calm   5.0 mph 78 % 0.01 in
08:54 56.5 °F 50.0 °F 30.27 in NW 3.0 mph 6.0 mph 79 % 0.01 in
08:59 56.7 °F 49.8 °F 30.27 in ESE 1.0 mph 6.0 mph 78 % 0.01 in
09:04 56.8 °F 49.3 °F 30.27 in Calm   6.0 mph 76 % 0.01 in
09:09 57.0 °F 49.1 °F 30.27 in NNE 2.0 mph 6.0 mph 75 % 0.00 in
09:14 57.0 °F 49.5 °F 30.27 in NE 2.0 mph 6.0 mph 76 % 0.00 in
09:19 57.6 °F 49.6 °F 30.27 in East 2.0 mph 6.0 mph 75 % 0.00 in
09:24 58.1 °F 49.8 °F 30.27 in ENE 3.0 mph 6.0 mph 74 % 0.00 in
09:29 58.3 °F 50.0 °F 30.27 in North 3.0 mph 6.0 mph 74 % 0.00 in
09:34 58.5 °F 50.2 °F 30.27 in Calm   6.0 mph 74 % 0.00 in
09:39 59.2 °F 50.2 °F 30.27 in East 1.0 mph 6.0 mph 72 % 0.00 in
09:44 59.7 °F 50.7 °F 30.27 in East 2.0 mph 6.0 mph 72 % 0.00 in
09:49 60.1 °F 51.1 °F 30.27 in NNE 1.0 mph 5.0 mph 72 % 0.00 in
09:54 60.4 °F 51.1 °F 30.27 in NE 2.0 mph 6.0 mph 71 % 0.00 in
10:00 60.6 °F 50.4 °F 30.27 in Calm   6.0 mph 69 % 0.00 in
10:05 61.0 °F 50.4 °F 30.27 in ENE 2.0 mph 6.0 mph 68 % 0.00 in
10:10 61.3 °F 50.4 °F 30.27 in East 5.0 mph 7.0 mph 67 % 0.00 in
10:15 61.3 °F 50.4 °F 30.27 in ENE 1.0 mph 7.0 mph 67 % 0.00 in
10:20 61.7 °F 50.7 °F 30.27 in NNW 1.0 mph 7.0 mph 67 % 0.00 in
10:25 62.1 °F 50.5 °F 30.27 in East 2.0 mph 7.0 mph 66 % 0.00 in
10:30 62.8 °F 50.4 °F 30.26 in West 1.0 mph 7.0 mph 64 % 0.00 in
10:35 63.3 °F 50.5 °F 30.26 in West 1.0 mph 6.0 mph 63 % 0.00 in
10:40 63.3 °F 50.5 °F 30.26 in SE 1.0 mph 8.0 mph 63 % 0.00 in
10:45 63.3 °F 50.9 °F 30.26 in East 2.0 mph 8.0 mph 64 % 0.00 in
10:50 63.7 °F 51.6 °F 30.26 in NNW 5.0 mph 8.0 mph 65 % 0.00 in
10:55 64.0 °F 51.6 °F 30.26 in North 2.0 mph 8.0 mph 64 % 0.00 in
11:00 64.0 °F 51.6 °F 30.25 in East 3.0 mph 9.0 mph 64 % 0.00 in
11:05 63.7 °F 51.6 °F 30.25 in NW 2.0 mph 9.0 mph 65 % 0.00 in
11:10 64.2 °F 52.7 °F 30.25 in ENE 6.0 mph 9.0 mph 66 % 0.00 in
11:15 64.2 °F 51.8 °F 30.25 in South 1.0 mph 10.0 mph 64 % 0.00 in
11:20 64.0 °F 52.0 °F 30.25 in NE 2.0 mph 10.0 mph 65 % 0.00 in
11:25 64.0 °F 51.6 °F 30.24 in NE 1.0 mph 10.0 mph 64 % 0.00 in
11:30 64.8 °F 53.1 °F 30.24 in ESE 1.0 mph 8.0 mph 66 % 0.00 in
11:35 65.7 °F 52.7 °F 30.24 in NNW 3.0 mph 9.0 mph 63 % 0.00 in
11:40 65.7 °F 53.2 °F 30.24 in SE 1.0 mph 9.0 mph 64 % 0.00 in
11:41 65.7 °F 53.2 °F 30.24 in ENE 3.0 mph 9.0 mph 64 % 0.00 in
11:46 65.8 °F 52.9 °F 30.24 in ESE 1.0 mph 10.0 mph 63 % 0.00 in
11:51 65.7 °F 52.7 °F 30.23 in ESE 4.0 mph 10.0 mph 63 % 0.00 in
11:56 66.0 °F 53.1 °F 30.23 in Calm   10.0 mph 63 % 0.00 in
12:01 66.7 °F 53.8 °F 30.23 in East 1.0 mph 7.0 mph 63 % 0.00 in
12:11 67.3 °F 53.8 °F 30.22 in NE 2.0 mph 6.0 mph 62 % 0.00 in
12:16 67.3 °F 53.4 °F 30.22 in ESE 1.0 mph 6.0 mph 61 % 0.00 in
12:21 67.3 °F 53.8 °F 30.22 in East 1.0 mph 6.0 mph 62 % 0.00 in
12:26 67.3 °F 52.9 °F 30.21 in NNE 2.0 mph 7.0 mph 60 % 0.00 in
12:31 67.3 °F 52.9 °F 30.21 in WSW 1.0 mph 7.0 mph 60 % 0.00 in
12:36 67.3 °F 52.9 °F 30.21 in Calm   7.0 mph 60 % 0.00 in
12:41 68.0 °F 53.6 °F 30.20 in East 4.0 mph 6.0 mph 60 % 0.00 in
12:46 68.2 °F 53.2 °F 30.20 in NNE 1.0 mph 7.0 mph 59 % 0.00 in
12:51 68.5 °F 53.6 °F 30.19 in NE 2.0 mph 7.0 mph 59 % 0.00 in
12:56 68.4 °F 53.1 °F 30.19 in SW 1.0 mph 9.0 mph 58 % 0.00 in
13:01 68.5 °F 53.6 °F 30.19 in Calm   9.0 mph 59 % 0.00 in
13:06 68.5 °F 52.7 °F 30.19 in WNW 2.0 mph 9.0 mph 57 % 0.00 in
13:11 68.5 °F 52.7 °F 30.19 in ENE 4.0 mph 6.0 mph 57 % 0.00 in
13:16 68.7 °F 52.9 °F 30.19 in Calm   6.0 mph 57 % 0.00 in
13:21 68.5 °F 52.2 °F 30.19 in ENE 1.0 mph 7.0 mph 56 % 0.00 in
13:26 68.4 °F 52.0 °F 30.19 in NNW 2.0 mph 7.0 mph 56 % 0.00 in
13:31 68.7 °F 52.3 °F 30.19 in North 2.0 mph 8.0 mph 56 % 0.00 in
13:36 68.9 °F 51.6 °F 30.19 in North 2.0 mph 8.0 mph 54 % 0.00 in
13:41 68.9 °F 52.5 °F 30.18 in WNW 2.0 mph 8.0 mph 56 % 0.00 in
13:46 69.6 °F 53.2 °F 30.19 in NE 3.0 mph 6.0 mph 56 % 0.00 in
13:51 69.8 °F 52.3 °F 30.19 in NE 2.0 mph 6.0 mph 54 % 0.00 in
13:56 69.6 °F 51.3 °F 30.19 in Calm   6.0 mph 52 % 0.00 in
14:01 69.4 °F 50.5 °F 30.18 in East 1.0 mph 6.0 mph 51 % 0.00 in
14:06 69.1 °F 50.7 °F 30.18 in Calm   6.0 mph 52 % 0.00 in
14:11 69.4 °F 51.6 °F 30.18 in North 5.0 mph 5.0 mph 53 % 0.00 in
14:16 69.3 °F 50.9 °F 30.18 in Calm   5.0 mph 52 % 0.00 in
14:21 69.1 °F 51.3 °F 30.18 in ESE 1.0 mph 5.0 mph 53 % 0.00 in
14:26 69.3 °F 51.4 °F 30.18 in East 3.0 mph 5.0 mph 53 % 0.00 in
14:31 69.4 °F 51.1 °F 30.17 in North 1.0 mph 4.0 mph 52 % 0.00 in
14:36 69.4 °F 50.0 °F 30.17 in Calm   4.0 mph 50 % 0.00 in
14:41 69.4 °F 51.1 °F 30.17 in NE 2.0 mph 4.0 mph 52 % 0.00 in
14:46 69.6 °F 50.7 °F 30.17 in NE 2.0 mph 4.0 mph 51 % 0.00 in
14:51 69.4 °F 51.1 °F 30.17 in East 1.0 mph 4.0 mph 52 % 0.00 in
14:56 69.4 °F 50.5 °F 30.17 in NNE 1.0 mph 4.0 mph 51 % 0.00 in
15:01 69.3 °F 50.4 °F 30.18 in NW 1.0 mph 4.0 mph 51 % 0.00 in
15:06 69.1 °F 50.2 °F 30.17 in NE 2.0 mph 4.0 mph 51 % 0.00 in
15:07 69.1 °F 50.2 °F 30.17 in NNW 1.0 mph 4.0 mph 51 % 0.00 in
15:12 68.9 °F 50.5 °F 30.17 in NE 6.0 mph 6.0 mph 52 % 0.00 in
15:17 68.7 °F 50.4 °F 30.17 in North 3.0 mph 6.0 mph 52 % 0.00 in
15:22 68.7 °F 50.4 °F 30.18 in NNW 1.0 mph 6.0 mph 52 % 0.00 in
15:27 68.5 °F 50.2 °F 30.18 in NNE 1.0 mph 6.0 mph 52 % 0.00 in
15:32 68.5 °F 50.2 °F 30.18 in ESE 2.0 mph 4.0 mph 52 % 0.00 in
15:37 68.7 °F 50.9 °F 30.18 in NE 1.0 mph 4.0 mph 53 % 0.00 in
15:42 68.7 °F 50.9 °F 30.17 in ESE 2.0 mph 4.0 mph 53 % 0.00 in
15:47 68.5 °F 50.7 °F 30.18 in Calm   4.0 mph 53 % 0.00 in
15:52 68.5 °F 50.7 °F 30.17 in Calm   3.0 mph 53 % 0.00 in
15:57 68.7 °F 51.4 °F 30.17 in Calm   3.0 mph 54 % 0.00 in
16:02 68.7 °F 51.4 °F 30.17 in Calm   3.0 mph 54 % 0.00 in
16:07 68.5 °F 51.3 °F 30.17 in East 1.0 mph 3.0 mph 54 % 0.00 in
16:12 68.2 °F 50.4 °F 30.17 in ENE 1.0 mph 4.0 mph 53 % 0.00 in
16:17 67.8 °F 50.5 °F 30.18 in East 1.0 mph 4.0 mph 54 % 0.00 in
16:22 67.8 °F 50.5 °F 30.18 in NNE 2.0 mph 4.0 mph 54 % 0.00 in
16:27 67.8 °F 51.1 °F 30.17 in Calm   3.0 mph 55 % 0.00 in
16:32 67.8 °F 51.1 °F 30.17 in Calm   3.0 mph 55 % 0.00 in
16:37 67.6 °F 51.4 °F 30.17 in Calm   5.0 mph 56 % 0.00 in
16:42 67.6 °F 51.4 °F 30.17 in Calm   5.0 mph 56 % 0.00 in
16:47 67.5 °F 51.6 °F 30.17 in ENE 1.0 mph 5.0 mph 57 % 0.00 in
16:52 67.3 °F 51.1 °F 30.17 in Calm   3.0 mph 56 % 0.00 in
16:57 67.3 °F 51.4 °F 30.18 in Calm   3.0 mph 57 % 0.00 in
17:02 66.9 °F 51.3 °F 30.18 in East 2.0 mph 3.0 mph 57 % 0.00 in
17:07 66.7 °F 51.1 °F 30.18 in Calm   3.0 mph 57 % 0.00 in
17:12 66.7 °F 51.1 °F 30.17 in ESE 1.0 mph 3.0 mph 57 % 0.00 in
17:13 66.7 °F 51.1 °F 30.17 in SE 1.0 mph 3.0 mph 57 % 0.00 in
17:18 66.6 °F 50.9 °F 30.18 in Calm   3.0 mph 57 % 0.00 in
17:23 66.6 °F 50.9 °F 30.18 in East 1.0 mph 2.0 mph 57 % 0.00 in
17:28 66.4 °F 51.1 °F 30.18 in Calm   2.0 mph 58 % 0.00 in
17:33 66.2 °F 51.4 °F 30.17 in Calm   2.0 mph 59 % 0.00 in
17:38 66.0 °F 50.9 °F 30.17 in North 2.0 mph 2.0 mph 58 % 0.00 in
17:43 66.0 °F 51.3 °F 30.18 in Calm   2.0 mph 59 % 0.00 in
17:48 65.8 °F 51.1 °F 30.17 in ESE 2.0 mph 2.0 mph 59 % 0.00 in
17:53 65.8 °F 51.1 °F 30.18 in Calm   2.0 mph 59 % 0.00 in
17:58 65.8 °F 51.6 °F 30.18 in ESE 1.0 mph 2.0 mph 60 % 0.00 in
18:03 65.7 °F 51.4 °F 30.18 in Calm   2.0 mph 60 % 0.00 in
18:08 65.7 °F 51.4 °F 30.18 in Calm   2.0 mph 60 % 0.00 in
18:13 65.5 °F 51.3 °F 30.18 in Calm   2.0 mph 60 % 0.00 in
18:18 65.5 °F 51.6 °F 30.18 in Calm   1.0 mph 61 % 0.00 in
18:23 65.5 °F 51.6 °F 30.18 in Calm   1.0 mph 61 % 0.00 in
18:28 65.3 °F 51.4 °F 30.18 in NE 1.0 mph 1.0 mph 61 % 0.00 in
18:33 65.1 °F 51.8 °F 30.18 in NE 1.0 mph 3.0 mph 62 % 0.00 in
18:38 65.1 °F 51.8 °F 30.18 in NNE 1.0 mph 3.0 mph 62 % 0.00 in
18:43 65.1 °F 51.8 °F 30.18 in Calm   3.0 mph 62 % 0.00 in
18:48 65.1 °F 51.8 °F 30.18 in Calm   3.0 mph 62 % 0.00 in
18:53 65.1 °F 51.8 °F 30.19 in ESE 1.0 mph 3.0 mph 62 % 0.00 in
18:58 64.9 °F 52.0 °F 30.19 in Calm   2.0 mph 63 % 0.00 in
19:03 64.9 °F 52.0 °F 30.19 in Calm   2.0 mph 63 % 0.00 in
19:08 64.9 °F 52.0 °F 30.19 in Calm   2.0 mph 63 % 0.00 in
19:13 64.9 °F 52.0 °F 30.19 in East 1.0 mph 2.0 mph 63 % 0.00 in
19:18 64.9 °F 52.0 °F 30.19 in NE 2.0 mph 2.0 mph 63 % 0.00 in
19:23 64.9 °F 52.0 °F 30.19 in Calm   2.0 mph 63 % 0.00 in
19:28 64.8 °F 51.8 °F 30.19 in East 3.0 mph 3.0 mph 63 % 0.00 in
19:33 64.8 °F 52.3 °F 30.19 in Calm   4.0 mph 64 % 0.00 in
19:38 64.6 °F 52.2 °F 30.19 in Calm   4.0 mph 64 % 0.00 in
19:43 64.6 °F 52.2 °F 30.19 in East 1.0 mph 4.0 mph 64 % 0.00 in
19:48 64.4 °F 52.3 °F 30.19 in Calm   3.0 mph 65 % 0.00 in
19:53 64.2 °F 52.2 °F 30.19 in ESE 1.0 mph 3.0 mph 65 % 0.00 in
19:58 64.2 °F 52.2 °F 30.19 in ESE 1.0 mph 4.0 mph 65 % 0.00 in
20:03 64.2 °F 52.2 °F 30.19 in Calm   4.0 mph 65 % 0.00 in
20:08 64.0 °F 52.5 °F 30.19 in Calm   4.0 mph 66 % 0.00 in
20:13 64.0 °F 52.5 °F 30.19 in Calm   3.0 mph 66 % 0.00 in
20:18 64.0 °F 52.0 °F 30.19 in ENE 3.0 mph 4.0 mph 65 % 0.00 in
20:23 63.9 °F 52.3 °F 30.20 in Calm   5.0 mph 66 % 0.00 in
20:28 63.9 °F 51.8 °F 30.19 in Calm   5.0 mph 65 % 0.00 in
20:33 63.9 °F 52.3 °F 30.19 in Calm   5.0 mph 66 % 0.00 in
20:38 63.7 °F 52.2 °F 30.20 in ESE 2.0 mph 3.0 mph 66 % 0.00 in
20:43 63.7 °F 51.6 °F 30.20 in East 1.0 mph 3.0 mph 65 % 0.00 in
20:48 63.7 °F 52.2 °F 30.19 in ESE 2.0 mph 4.0 mph 66 % 0.00 in
20:53 63.5 °F 52.0 °F 30.19 in Calm   4.0 mph 66 % 0.00 in
20:54 63.5 °F 52.0 °F 30.20 in SSE 1.0 mph 4.0 mph 66 % 0.00 in
20:59 63.3 °F 51.8 °F 30.20 in Calm   4.0 mph 66 % 0.00 in
21:04 63.3 °F 51.8 °F 30.20 in Calm   3.0 mph 66 % 0.00 in
21:09 63.3 °F 51.8 °F 30.20 in North 2.0 mph 3.0 mph 66 % 0.00 in
21:14 63.1 °F 52.0 °F 30.20 in Calm   3.0 mph 67 % 0.00 in
21:19 63.1 °F 52.0 °F 30.20 in Calm   3.0 mph 67 % 0.00 in
21:21 63.1 °F 52.0 °F 30.20 in Calm   3.0 mph 67 % 0.00 in
21:23 63.1 °F 52.0 °F 30.20 in Calm   3.0 mph 67 % 0.00 in
21:26 63.0 °F 51.8 °F 30.20 in SSE 1.0 mph 2.0 mph 67 % 0.00 in
21:29 63.0 °F 51.8 °F 30.20 in Calm   2.0 mph 67 % 0.00 in
21:31 63.0 °F 52.2 °F 30.20 in Calm   2.0 mph 68 % 0.00 in
21:36 63.0 °F 52.2 °F 30.20 in Calm   2.0 mph 68 % 0.00 in
21:41 63.0 °F 52.2 °F 30.20 in Calm   1.0 mph 68 % 0.00 in
21:46 62.8 °F 52.0 °F 30.20 in ENE 1.0 mph 1.0 mph 68 % 0.00 in
21:51 62.8 °F 52.0 °F 30.21 in ESE 2.0 mph 2.0 mph 68 % 0.00 in
21:56 62.8 °F 51.6 °F 30.20 in ESE 1.0 mph 3.0 mph 67 % 0.00 in
22:01 62.8 °F 51.6 °F 30.20 in Calm   3.0 mph 67 % 0.00 in
22:06 62.8 °F 51.6 °F 30.20 in SE 1.0 mph 3.0 mph 67 % 0.00 in
22:11 62.8 °F 52.0 °F 30.20 in Calm   2.0 mph 68 % 0.00 in
22:16 62.6 °F 52.0 °F 30.20 in ESE 2.0 mph 2.0 mph 68 % 0.00 in
22:21 62.6 °F 52.0 °F 30.20 in Calm   2.0 mph 68 % 0.00 in
22:26 62.4 °F 51.8 °F 30.19 in Calm   2.0 mph 68 % 0.00 in
22:31 62.4 °F 51.8 °F 30.19 in Calm   2.0 mph 68 % 0.00 in
22:36 62.4 °F 52.2 °F 30.19 in Calm   2.0 mph 69 % 0.00 in
22:41 62.4 °F 52.2 °F 30.19 in Calm   2.0 mph 69 % 0.00 in
22:46 62.2 °F 52.0 °F 30.19 in Calm   2.0 mph 69 % 0.00 in
22:51 62.2 °F 52.0 °F 30.19 in Calm   2.0 mph 69 % 0.00 in
22:56 62.2 °F 52.3 °F 30.19 in Calm   2.0 mph 70 % 0.00 in
23:01 62.1 °F 52.2 °F 30.19 in Calm   2.0 mph 70 % 0.00 in
23:06 62.1 °F 52.2 °F 30.19 in Calm   1.0 mph 70 % 0.00 in
23:11 62.1 °F 52.2 °F 30.19 in Calm   1.0 mph 70 % 0.00 in
23:16 62.1 °F 52.5 °F 30.18 in Calm   1.0 mph 71 % 0.00 in
23:21 62.1 °F 52.5 °F 30.18 in Calm   2.0 mph 71 % 0.00 in
23:26 61.9 °F 52.3 °F 30.18 in Calm   2.0 mph 71 % 0.00 in
23:31 61.9 °F 52.3 °F 30.18 in Calm   2.0 mph 71 % 0.00 in
23:36 61.9 °F 52.3 °F 30.18 in Calm   1.0 mph 71 % 0.00 in
23:41 61.9 °F 52.3 °F 30.18 in Calm   1.0 mph 71 % 0.00 in
23:46 61.9 °F 52.3 °F 30.18 in Calm   2.0 mph 71 % 0.00 in
23:51 61.9 °F 52.3 °F 30.18 in Calm   2.0 mph 71 % 0.00 in
23:56 61.9 °F 52.7 °F 30.17 in Calm   2.0 mph 72 % 0.00 in
Spring, Texas: Villages of Bridgestone
Compliments of Weather Underground - 2.75 mb

Script developed by  Jim McMurry - jmcmurry@mwt.net Adapted for the template by  Wim van der Kuil - Leuven-Template.eu

You find our weather info also at:

UK Metoffice

WeatherCloud

Weather Underground

Mid-South Weather Network

AWEKAS

Citizen Weather Observer Program (CWOP)

HAMweather, WeatherForYou, PWS Weather

Equipment we use:

Weather-station
Davis Vantage Vue

Weather-program
Meteohub

Weather-server
Debian 7.9 x86 (Guest)

Provider
DreamHost

Davis Vantage Vue

Meteohub

Debian 7.9 x86 (Guest)

DreamHost